Time;durP1;ratioP1;P1;durP2;ratioP2;P2;SDS_P1;SDS_P2;PMS_P1;PMS_P2;Temp;Humidity;BMP_temperature;BMP_pressure;BME280_temperature;BME280_humidity;BME280_pressure;Samples;Min_cycle;Max_cycle;Signal;HPM_P1;HPM_P2
2022/09/12 00:02:25;;;;;;;15.30;9.40;;;;;;;;;;5090639;28;20093;-73
2022/09/12 00:04:51;;;;;;;16.85;8.90;;;;;;;;;;5086745;28;20054;-73
2022/09/12 00:07:17;;;;;;;;;;;;;;;;;;5109539;28;20043;-73
2022/09/12 00:09:43;;;;;;;15.40;8.82;;;;;;;;;;5092319;28;19929;-74
2022/09/12 00:12:09;;;;;;;;;;;;;;;;;;5110514;28;20497;-73
2022/09/12 00:14:35;;;;;;;18.52;9.50;;;;;;;;;;5107321;28;20388;-74
2022/09/12 00:17:01;;;;;;;17.13;9.93;;;;;;;;;;5089751;28;20044;-73
2022/09/12 00:19:28;;;;;;;16.65;9.60;;;;;;;;;;5072937;28;20047;-74
2022/09/12 00:21:54;;;;;;;12.20;7.03;;;;;;;;;;5087740;28;20059;-73
2022/09/12 00:24:20;;;;;;;14.95;8.52;;;;;;;;;;5072597;28;20048;-74
2022/09/12 00:26:46;;;;;;;16.05;8.77;;;;;;;;;;5090463;28;20036;-75
2022/09/12 00:29:12;;;;;;;;;;;;;;;;;;5071863;28;20043;-74
2022/09/12 00:31:38;;;;;;;18.10;9.32;;;;;;;;;;5072307;28;19920;-73
2022/09/12 00:34:04;;;;;;;;;;;;;;;;;;5072741;28;20123;-73
2022/09/12 00:36:30;;;;;;;18.83;9.93;;;;;;;;;;5088723;28;20556;-73
2022/09/12 00:38:57;;;;;;;18.48;10.15;;;;;;;;;;5090745;28;20063;-74
2022/09/12 00:41:23;;;;;;;16.17;9.02;;;;;;;;;;5086909;28;20043;-73
2022/09/12 00:43:54;;;;;;;19.30;10.05;;;;;;;;;;5110134;28;20429;-77
2022/09/12 00:46:43;;;;;;;18.17;10.10;;;;;;;;;;5086960;28;20114;-73
2022/09/12 00:49:12;;;;;;;17.63;8.95;;;;;;;;;;5101774;28;20130;-73
2022/09/12 00:51:39;;;;;;;18.98;9.82;;;;;;;;;;5112266;28;20051;-74
2022/09/12 00:54:11;;;;;;;21.48;11.50;;;;;;;;;;5095836;28;20039;-74
2022/09/12 00:56:39;;;;;;;21.48;10.32;;;;;;;;;;5096453;28;20056;-74
2022/09/12 00:59:07;;;;;;;18.52;10.75;;;;;;;;;;5087546;28;20056;-73
2022/09/12 01:01:34;;;;;;;20.20;11.02;;;;;;;;;;5075531;28;20116;-72
2022/09/12 01:04:00;;;;;;;22.13;11.57;;;;;;;;;;5058965;28;20055;-73
2022/09/12 01:06:28;;;;;;;22.33;11.55;;;;;;;;;;5073938;28;20401;-73
2022/09/12 01:08:56;;;;;;;24.73;13.10;;;;;;;;;;5075477;28;20486;-73
2022/09/12 01:11:22;;;;;;;21.33;11.40;;;;;;;;;;5112162;28;20107;-73
2022/09/12 01:13:48;;;;;;;;;;;;;;;;;;5114658;28;20044;-74
2022/09/12 01:16:15;;;;;;;12.57;6.20;;;;;;;;;;5080276;28;19924;-74
2022/09/12 01:19:07;;;;;;;9.48;4.75;;;;;;;;;;5100324;28;20047;-73
2022/09/12 01:21:52;;;;;;;21.63;9.85;;;;;;;;;;5067621;28;20068;-73
2022/09/12 01:24:45;;;;;;;22.73;11.93;;;;;;;;;;5078221;28;20135;-75
2022/09/12 01:27:30;;;;;;;23.45;13.02;;;;;;;;;;5113264;28;20043;-73
2022/09/12 01:30:15;;;;;;;29.17;13.38;;;;;;;;;;5096868;28;20050;-74
2022/09/12 01:33:00;;;;;;;23.38;12.07;;;;;;;;;;5098169;28;20051;-73
2022/09/12 01:35:38;;;;;;;27.90;13.88;;;;;;;;;;5113631;28;20086;-73
2022/09/12 01:38:04;;;;;;;27.08;14.10;;;;;;;;;;5099604;28;20056;-73
2022/09/12 01:40:38;;;;;;;29.77;14.32;;;;;;;;;;5087833;28;20096;-73
2022/09/12 01:43:40;;;;;;;25.15;12.20;;;;;;;;;;5112496;28;20058;-73
2022/09/12 01:46:11;;;;;;;16.63;7.80;;;;;;;;;;5049512;28;20045;-73
2022/09/12 01:49:10;;;;;;;26.05;12.30;;;;;;;;;;5102797;28;20125;-73
2022/09/12 01:51:41;;;;;;;22.02;11.50;;;;;;;;;;5059935;28;20059;-72
2022/09/12 01:54:12;;;;;;;23.20;12.00;;;;;;;;;;5092654;28;20066;-73
2022/09/12 01:56:40;;;;;;;24.80;12.93;;;;;;;;;;5092810;28;20050;-72
2022/09/12 01:59:06;;;;;;;22.77;13.20;;;;;;;;;;5108467;28;20496;-73
2022/09/12 02:01:33;;;;;;;23.75;11.65;;;;;;;;;;5098282;28;20051;-72
2022/09/12 02:04:07;;;;;;;20.73;11.07;;;;;;;;;;5080092;28;20608;-73
2022/09/12 02:06:44;;;;;;;22.30;11.98;;;;;;;;;;5103692;28;20756;-73
2022/09/12 02:09:17;;;;;;;25.15;13.13;;;;;;;;;;5112831;28;20134;-73
2022/09/12 02:11:44;;;;;;;24.15;12.98;;;;;;;;;;5112943;28;20051;-73
2022/09/12 02:14:20;;;;;;;28.77;14.25;;;;;;;;;;5094634;28;20070;-73
2022/09/12 02:16:48;;;;;;;26.73;13.93;;;;;;;;;;5094414;28;20051;-73
2022/09/12 02:19:15;;;;;;;25.55;12.88;;;;;;;;;;5094234;28;20300;-74
2022/09/12 02:21:40;;;;;;;;;;;;;;;;;;5093125;28;20044;-73
2022/09/12 02:24:07;;;;;;;25.88;12.93;;;;;;;;;;5091880;28;19943;-73
2022/09/12 02:26:35;;;;;;;25.27;12.23;;;;;;;;;;5074281;28;20047;-73
2022/09/12 02:29:02;;;;;;;28.48;13.52;;;;;;;;;;5107696;28;20515;-73
2022/09/12 02:31:33;;;;;;;26.08;12.38;;;;;;;;;;5093967;28;20047;-74
2022/09/12 02:34:07;;;;;;;30.45;13.55;;;;;;;;;;5103793;28;20431;-73
2022/09/12 02:36:33;;;;;;;27.30;14.18;;;;;;;;;;5090015;28;20060;-73
2022/09/12 02:39:00;;;;;;;;;;;;;;;;;;5091842;28;20048;-74
2022/09/12 02:41:26;;;;;;;25.05;13.15;;;;;;;;;;5091686;28;20424;-74
2022/09/12 02:43:53;;;;;;;28.60;14.40;;;;;;;;;;5092070;28;20093;-74
2022/09/12 02:46:26;;;;;;;26.70;13.73;;;;;;;;;;5084265;28;20055;-73
2022/09/12 02:48:52;;;;;;;30.35;14.45;;;;;;;;;;5112461;28;20048;-73
2022/09/12 02:51:19;;;;;;;30.38;13.98;;;;;;;;;;5081561;28;20054;-73
2022/09/12 02:53:46;;;;;;;27.13;13.75;;;;;;;;;;5073958;28;20059;-73
2022/09/12 02:56:12;;;;;;;;;;;;;;;;;;5091762;28;20052;-73
2022/09/12 02:58:38;;;;;;;27.42;14.02;;;;;;;;;;5073877;28;19924;-73
2022/09/12 03:01:22;;;;;;;28.95;13.70;;;;;;;;;;5091111;28;20048;-73
2022/09/12 03:04:07;;;;;;;31.88;14.98;;;;;;;;;;5073775;28;20071;-74
2022/09/12 03:06:37;;;;;;;29.88;15.20;;;;;;;;;;5108462;28;20070;-72
2022/09/12 03:09:03;;;;;;;31.48;13.93;;;;;;;;;;5093027;28;20047;-73
2022/09/12 03:11:48;;;;;;;30.60;15.25;;;;;;;;;;5093534;28;20047;-74
2022/09/12 03:14:22;;;;;;;31.35;15.88;;;;;;;;;;5092567;28;20401;-73
2022/09/12 03:17:07;;;;;;;27.33;13.48;;;;;;;;;;5093065;28;20090;-72
2022/09/12 03:19:52;;;;;;;30.48;14.43;;;;;;;;;;5127933;27;20442;-73
2022/09/12 03:22:28;;;;;;;32.45;14.25;;;;;;;;;;5085182;28;20047;-73
2022/09/12 03:25:00;;;;;;;35.08;16.02;;;;;;;;;;5090175;28;20165;-73
2022/09/12 03:27:39;;;;;;;32.33;14.98;;;;;;;;;;5090980;28;20044;-73
2022/09/12 03:30:07;;;;;;;30.40;15.00;;;;;;;;;;5090595;28;20521;-74
2022/09/12 03:32:47;;;;;;;30.67;14.45;;;;;;;;;;5073034;28;20055;-73
2022/09/12 03:35:14;;;;;;;31.23;15.98;;;;;;;;;;5072426;28;20052;-74
2022/09/12 03:37:40;;;;;;;27.42;14.98;;;;;;;;;;5090725;28;20048;-73
2022/09/12 03:40:07;;;;;;;34.72;15.32;;;;;;;;;;5092293;28;20047;-73
2022/09/12 03:42:33;;;;;;;32.08;15.20;;;;;;;;;;5111206;28;20070;-73
2022/09/12 03:44:59;;;;;;;32.00;15.95;;;;;;;;;;5093523;28;20054;-73
2022/09/12 03:47:26;;;;;;;28.55;14.95;;;;;;;;;;5086018;28;20422;-74
2022/09/12 03:49:52;;;;;;;30.50;14.60;;;;;;;;;;5091102;28;20044;-73
2022/09/12 03:52:18;;;;;;;31.60;15.57;;;;;;;;;;5101232;28;20481;-73
2022/09/12 03:54:44;;;;;;;25.33;13.75;;;;;;;;;;5093340;28;20051;-74
2022/09/12 03:57:10;;;;;;;26.67;13.90;;;;;;;;;;5110661;28;20036;-74
2022/09/12 03:59:36;;;;;;;;;;;;;;;;;;5111581;28;20047;-73
2022/09/12 04:02:03;;;;;;;28.00;13.93;;;;;;;;;;5092484;28;20387;-76
2022/09/12 04:04:30;;;;;;;27.45;14.15;;;;;;;;;;5093211;28;20101;-73
2022/09/12 04:06:56;;;;;;;27.83;13.73;;;;;;;;;;5109265;28;20131;-73
2022/09/12 04:09:22;;;;;;;29.58;14.05;;;;;;;;;;5108530;28;20063;-73
2022/09/12 04:11:48;;;;;;;;;;;;;;;;;;5093059;28;20063;-73
2022/09/12 04:14:14;;;;;;;26.20;13.82;;;;;;;;;;5110703;28;19983;-73
2022/09/12 04:16:40;;;;;;;;;;;;;;;;;;5110923;28;20516;-73
2022/09/12 04:19:06;;;;;;;30.42;13.18;;;;;;;;;;5126617;28;19920;-77
2022/09/12 04:21:32;;;;;;;;;;;;;;;;;;5098996;28;20151;-73
2022/09/12 04:23:58;;;;;;;25.65;12.68;;;;;;;;;;5091666;28;19924;-73
2022/09/12 04:26:24;;;;;;;256.02;17.95;;;;;;;;;;5095890;28;20136;-73
2022/09/12 04:28:53;;;;;;;20.55;8.02;;;;;;;;;;5115160;28;20048;-73
2022/09/12 04:31:21;;;;;;;16.77;8.00;;;;;;;;;;5095610;28;20047;-73
2022/09/12 04:33:48;;;;;;;18.50;9.30;;;;;;;;;;5113513;28;20051;-73
2022/09/12 04:36:15;;;;;;;20.83;10.10;;;;;;;;;;5113158;28;20444;-75
2022/09/12 04:38:43;;;;;;;17.60;6.22;;;;;;;;;;5114684;28;20044;-73
2022/09/12 04:41:12;;;;;;;53.25;6.32;;;;;;;;;;5114058;28;20061;-75
2022/09/12 04:43:39;;;;;;;9.25;4.40;;;;;;;;;;5079906;28;20048;-75
2022/09/12 04:46:09;;;;;;;46.88;6.63;;;;;;;;;;5114604;28;20054;-73
2022/09/12 04:48:36;;;;;;;22.00;10.75;;;;;;;;;;5114376;28;20503;-73
2022/09/12 04:51:02;;;;;;;;;;;;;;;;;;5097429;28;20048;-73
2022/09/12 04:53:28;;;;;;;27.17;11.57;;;;;;;;;;5078516;28;19916;-73
2022/09/12 04:55:54;;;;;;;;;;;;;;;;;;5096914;28;20091;-73
2022/09/12 04:58:20;;;;;;;27.52;12.40;;;;;;;;;;5113748;28;19969;-75
2022/09/12 05:00:47;;;;;;;24.10;11.50;;;;;;;;;;5079178;28;20100;-75
2022/09/12 05:03:13;;;;;;;25.15;12.15;;;;;;;;;;5113473;28;20400;-73
2022/09/12 05:05:39;;;;;;;21.58;11.48;;;;;;;;;;5113918;28;20443;-73
2022/09/12 05:08:06;;;;;;;30.98;14.65;;;;;;;;;;5093982;28;20122;-73
2022/09/12 05:10:31;;;;;;;;;;;;;;;;;;5095763;28;20063;-73
2022/09/12 05:12:57;;;;;;;30.17;12.80;;;;;;;;;;5095231;28;19923;-73
2022/09/12 05:15:24;;;;;;;31.17;14.13;;;;;;;;;;5113596;28;20104;-73
2022/09/12 05:17:50;;;;;;;31.13;14.98;;;;;;;;;;5091735;28;20048;-73
2022/09/12 05:20:16;;;;;;;;;;;;;;;;;;5077217;28;20477;-73
2022/09/12 05:22:42;;;;;;;27.90;13.40;;;;;;;;;;5087019;28;20079;-73
2022/09/12 05:25:08;;;;;;;;;;;;;;;;;;5096171;28;20114;-73
2022/09/12 05:27:34;;;;;;;32.00;14.70;;;;;;;;;;5105543;28;20014;-73
2022/09/12 05:30:00;;;;;;;;;;;;;;;;;;5082525;28;20373;-73
2022/09/12 05:32:30;;;;;;;26.88;12.25;;;;;;;;;;5112735;28;20380;-73
2022/09/12 05:34:56;;;;;;;31.35;14.80;;;;;;;;;;5095465;28;20064;-74
2022/09/12 05:37:22;;;;;;;;;;;;;;;;;;5127125;27;20056;-73
2022/09/12 05:39:48;;;;;;;32.75;14.73;;;;;;;;;;5113250;28;19942;-72
2022/09/12 05:42:14;;;;;;;;;;;;;;;;;;5094965;28;20127;-72
2022/09/12 05:44:40;;;;;;;33.60;14.52;;;;;;;;;;5078635;28;20351;-74
2022/09/12 05:47:06;;;;;;;34.22;15.30;;;;;;;;;;5093574;28;20050;-72
2022/09/12 05:49:35;;;;;;;32.45;14.88;;;;;;;;;;5094527;28;20172;-72
2022/09/12 05:52:02;;;;;;;29.80;14.85;;;;;;;;;;5077809;28;20492;-73
2022/09/12 05:54:28;;;;;;;33.47;15.30;;;;;;;;;;5074614;28;20059;-72
2022/09/12 05:56:54;;;;;;;;;;;;;;;;;;5100076;28;20043;-72
2022/09/12 05:59:20;;;;;;;36.55;15.88;;;;;;;;;;5074500;28;19919;-72
2022/09/12 06:01:47;;;;;;;33.42;14.80;;;;;;;;;;5074425;28;20055;-72
2022/09/12 06:04:13;;;;;;;37.13;16.38;;;;;;;;;;5074795;28;20047;-77
2022/09/12 06:06:43;;;;;;;33.38;16.17;;;;;;;;;;5090802;28;20052;-73
2022/09/12 06:09:10;;;;;;;35.72;15.95;;;;;;;;;;5076168;28;20051;-72
2022/09/12 06:11:39;;;;;;;37.35;15.10;;;;;;;;;;5092329;28;20750;-72
2022/09/12 06:14:05;;;;;;;33.08;15.50;;;;;;;;;;5094324;28;20082;-73
2022/09/12 06:16:31;;;;;;;36.17;15.70;;;;;;;;;;5124968;27;20084;-73
2022/09/12 06:18:59;;;;;;;37.75;16.65;;;;;;;;;;5092612;28;20565;-74
2022/09/12 06:21:26;;;;;;;37.10;16.52;;;;;;;;;;5088909;28;20059;-74
2022/09/12 06:23:53;;;;;;;38.42;17.58;;;;;;;;;;5105360;28;20042;-75
2022/09/12 06:26:24;;;;;;;38.95;16.98;;;;;;;;;;5090537;28;20092;-74
2022/09/12 06:28:50;;;;;;;36.15;16.00;;;;;;;;;;5105837;28;20455;-74
2022/09/12 06:31:17;;;;;;;;;;;;;;;;;;5109063;28;20726;-76
2022/09/12 06:33:44;;;;;;;34.67;15.52;;;;;;;;;;5092109;28;19934;-73
2022/09/12 06:36:15;;;;;;;31.05;13.93;;;;;;;;;;5109299;28;20829;-74
2022/09/12 06:38:41;;;;;;;33.17;14.75;;;;;;;;;;5109388;28;20083;-74
2022/09/12 06:41:09;;;;;;;37.80;16.27;;;;;;;;;;5091798;28;20050;-73
2022/09/12 06:43:35;;;;;;;33.08;15.75;;;;;;;;;;5091919;28;20054;-73
2022/09/12 06:46:01;;;;;;;;;;;;;;;;;;5110208;28;20044;-73
2022/09/12 06:48:28;;;;;;;34.78;15.20;;;;;;;;;;5091058;28;19930;-74
2022/09/12 06:50:57;;;;;;;36.05;16.20;;;;;;;;;;5111090;28;20051;-76
2022/09/12 06:53:23;;;;;;;32.10;16.00;;;;;;;;;;5108607;28;20040;-73
2022/09/12 06:55:49;;;;;;;;;;;;;;;;;;5107747;28;20067;-75
2022/09/12 06:58:15;;;;;;;34.38;15.45;;;;;;;;;;5111056;28;20007;-73
2022/09/12 07:00:41;;;;;;;31.90;14.15;;;;;;;;;;5093127;28;20043;-73
2022/09/12 07:03:07;;;;;;;31.05;14.45;;;;;;;;;;5109005;28;20050;-75
2022/09/12 07:05:34;;;;;;;30.58;15.60;;;;;;;;;;5102852;28;20130;-74
2022/09/12 07:08:00;;;;;;;30.60;14.40;;;;;;;;;;5089565;28;20048;-77
2022/09/12 07:10:27;;;;;;;34.00;15.13;;;;;;;;;;5092091;28;20055;-74
2022/09/12 07:12:53;;;;;;;28.50;13.95;;;;;;;;;;5093317;28;20384;-74
2022/09/12 07:15:19;;;;;;;32.20;15.70;;;;;;;;;;5107042;28;20468;-78
2022/09/12 07:17:45;;;;;;;32.53;14.05;;;;;;;;;;5109959;28;20043;-75
2022/09/12 07:20:11;;;;;;;;;;;;;;;;;;5093987;28;20082;-74
2022/09/12 07:22:37;;;;;;;26.92;13.45;;;;;;;;;;5090967;28;19957;-74
2022/09/12 07:25:03;;;;;;;;;;;;;;;;;;5111674;28;20044;-76
2022/09/12 07:27:30;;;;;;;29.13;14.52;;;;;;;;;;5121794;27;20006;-77
2022/09/12 07:29:55;;;;;;;;;;;;;;;;;;5093839;28;20139;-76
2022/09/12 07:32:22;;;;;;;24.63;12.65;;;;;;;;;;5126643;27;20014;-79
2022/09/12 07:34:49;;;;;;;23.95;12.23;;;;;;;;;;5110668;28;20065;-75
2022/09/12 07:37:15;;;;;;;25.50;12.70;;;;;;;;;;5100530;28;20047;-71
2022/09/12 07:39:41;;;;;;;24.00;12.05;;;;;;;;;;5110736;28;20092;-72
2022/09/12 07:42:07;;;;;;;;;;;;;;;;;;5093342;28;20112;-71
2022/09/12 07:44:33;;;;;;;24.02;11.98;;;;;;;;;;5110484;28;20380;-73
2022/09/12 07:46:59;;;;;;;;;;;;;;;;;;5110166;28;20123;-74
2022/09/12 07:49:25;;;;;;;23.77;11.57;;;;;;;;;;5092706;28;20421;-73
2022/09/12 07:51:52;;;;;;;;;;;;;;;;;;5109432;28;20063;-73
2022/09/12 07:54:18;;;;;;;24.67;12.60;;;;;;;;;;5090599;28;19927;-73
2022/09/12 07:56:44;;;;;;;28.55;13.07;;;;;;;;;;5100015;28;20055;-73
2022/09/12 07:59:10;;;;;;;25.83;12.85;;;;;;;;;;5092548;28;20507;-73
2022/09/12 08:01:38;;;;;;;;;;;;;;;;;;5092528;28;20469;-73
2022/09/12 08:04:04;;;;;;;21.17;11.70;;;;;;;;;;5110726;28;19932;-74
2022/09/12 08:06:32;;;;;;;22.90;11.43;;;;;;;;;;5124619;28;20092;-73
2022/09/12 08:08:59;;;;;;;25.48;11.77;;;;;;;;;;5110535;28;20508;-73
2022/09/12 08:11:26;;;;;;;24.17;12.38;;;;;;;;;;5092130;28;20051;-76
2022/09/12 08:13:54;;;;;;;22.20;10.82;;;;;;;;;;5092834;28;20051;-73
2022/09/12 08:16:21;;;;;;;23.63;12.23;;;;;;;;;;5110812;28;20040;-73
2022/09/12 08:18:48;;;;;;;22.75;11.40;;;;;;;;;;5099061;28;20055;-74
2022/09/12 08:21:15;;;;;;;20.92;10.90;;;;;;;;;;5091467;28;20055;-73
2022/09/12 08:23:42;;;;;;;24.50;10.73;;;;;;;;;;5109439;28;20100;-73
2022/09/12 08:26:09;;;;;;;22.85;10.65;;;;;;;;;;5091747;28;20055;-73
2022/09/12 08:28:35;;;;;;;23.33;11.82;;;;;;;;;;5092077;28;20052;-74
2022/09/12 08:31:10;;;;;;;22.85;11.20;;;;;;;;;;5090592;28;20131;-73
2022/09/12 08:33:36;;;;;;;22.88;11.07;;;;;;;;;;5101654;28;20092;-73
2022/09/12 08:36:02;;;;;;;;;;;;;;;;;;5091763;28;20051;-72
2022/09/12 08:38:29;;;;;;;22.33;10.90;;;;;;;;;;5091391;28;19923;-73
2022/09/12 08:41:01;;;;;;;22.55;10.73;;;;;;;;;;5096166;28;20048;-73
2022/09/12 08:43:27;;;;;;;23.70;11.63;;;;;;;;;;5091602;28;20184;-73
2022/09/12 08:46:13;;;;;;;22.52;11.30;;;;;;;;;;5086897;28;20123;-75
2022/09/12 08:48:39;;;;;;;27.10;11.50;;;;;;;;;;5088735;28;20127;-73
2022/09/12 08:51:10;;;;;;;23.92;11.65;;;;;;;;;;5077245;28;20044;-72
2022/09/12 08:53:37;;;;;;;22.63;11.82;;;;;;;;;;5074321;28;20390;-72
2022/09/12 08:56:05;;;;;;;24.38;12.52;;;;;;;;;;5087751;28;20112;-77
2022/09/12 08:58:36;;;;;;;25.77;12.45;;;;;;;;;;5119541;27;20044;-77
2022/09/12 09:01:14;;;;;;;26.73;12.57;;;;;;;;;;5090498;28;20088;-73
2022/09/12 09:03:53;;;;;;;20.40;10.90;;;;;;;;;;5116219;28;20044;-75
2022/09/12 09:06:37;;;;;;;21.38;10.68;;;;;;;;;;5113192;28;20051;-74
2022/09/12 09:09:03;;;;;;;28.25;12.27;;;;;;;;;;5086096;28;20116;-72
2022/09/12 09:11:29;;;;;;;;;;;;;;;;;;5090203;28;20481;-74
2022/09/12 09:16:43;;;;;;;26.52;12.75;;;;;;;;;;5094428;28;20063;-74
2022/09/12 09:19:12;;;;;;;26.23;13.23;;;;;;;;;;5113638;28;20126;-73
2022/09/12 09:21:49;;;;;;;30.20;14.38;;;;;;;;;;5089174;28;20078;-73
2022/09/12 09:24:17;;;;;;;28.30;12.85;;;;;;;;;;5118521;27;20051;-74
2022/09/12 09:26:55;;;;;;;30.15;12.40;;;;;;;;;;5111533;28;20044;-74
2022/09/12 09:29:35;;;;;;;28.67;13.77;;;;;;;;;;5113648;28;20051;-73
2022/09/12 09:32:03;;;;;;;32.83;13.63;;;;;;;;;;5095389;28;20062;-73
2022/09/12 09:34:30;;;;;;;29.10;13.70;;;;;;;;;;5092670;28;20063;-75
2022/09/12 09:37:05;;;;;;;27.98;14.32;;;;;;;;;;5093746;28;20477;-73
2022/09/12 09:39:34;;;;;;;27.98;14.52;;;;;;;;;;5093039;28;20101;-75
2022/09/12 09:42:00;;;;;;;32.75;15.30;;;;;;;;;;5108690;28;20442;-74
2022/09/12 09:44:27;;;;;;;;;;;;;;;;;;5128585;27;20397;-73
2022/09/12 09:46:54;;;;;;;31.33;13.52;;;;;;;;;;5092985;28;20289;-71
2022/09/12 09:49:21;;;;;;;30.08;13.40;;;;;;;;;;5095348;28;20039;-73
2022/09/12 09:51:47;;;;;;;36.08;16.27;;;;;;;;;;5090067;28;20123;-73
2022/09/12 09:54:16;;;;;;;32.22;15.15;;;;;;;;;;5093605;28;20040;-75
2022/09/12 09:56:42;;;;;;;32.75;14.70;;;;;;;;;;5076845;28;20079;-77
2022/09/12 09:59:14;;;;;;;34.13;15.75;;;;;;;;;;5074904;28;20043;-75
2022/09/12 10:01:49;;;;;;;29.35;14.85;;;;;;;;;;5091755;28;20062;-74
2022/09/12 10:04:22;;;;;;;37.40;15.48;;;;;;;;;;5094776;28;20051;-75
2022/09/12 10:07:11;;;;;;;33.67;15.65;;;;;;;;;;5075321;28;20043;-75
2022/09/12 10:09:37;;;;;;;31.15;14.77;;;;;;;;;;5076079;28;20082;-75
2022/09/12 10:12:27;;;;;;;31.77;14.60;;;;;;;;;;5093269;28;20143;-75
2022/09/12 10:14:57;;;;;;;36.38;15.15;;;;;;;;;;5088603;28;20083;-75
2022/09/12 10:17:28;;;;;;;33.35;15.70;;;;;;;;;;5093838;28;20053;-76
2022/09/12 10:19:55;;;;;;;33.28;14.10;;;;;;;;;;5112075;28;20051;-74
2022/09/12 10:22:22;;;;;;;31.98;13.93;;;;;;;;;;5109941;28;20047;-73
2022/09/12 10:24:51;;;;;;;34.22;14.93;;;;;;;;;;5110621;28;20104;-75
2022/09/12 10:27:24;;;;;;;30.38;14.60;;;;;;;;;;5110406;28;20039;-72
2022/09/12 10:29:55;;;;;;;34.83;14.13;;;;;;;;;;5093717;28;20047;-74
2022/09/12 10:32:24;;;;;;;30.38;14.73;;;;;;;;;;5093687;28;20104;-74
2022/09/12 10:34:52;;;;;;;37.80;15.02;;;;;;;;;;5092903;28;20055;-74
2022/09/12 10:37:29;;;;;;;31.40;13.85;;;;;;;;;;5109750;28;20101;-74
2022/09/12 10:39:57;;;;;;;36.30;14.23;;;;;;;;;;5093392;28;20036;-74
2022/09/12 10:42:42;;;;;;;30.30;14.23;;;;;;;;;;5111998;28;20051;-74
2022/09/12 10:45:41;;;;;;;27.38;12.20;;;;;;;;;;5092370;28;20043;-76
2022/09/12 10:48:22;;;;;;;29.63;12.88;;;;;;;;;;5082211;28;20518;-74
2022/09/12 10:50:48;;;;;;;24.58;11.70;;;;;;;;;;5092939;28;20450;-75
2022/09/12 10:53:18;;;;;;;22.38;11.18;;;;;;;;;;5110289;28;20759;-74
2022/09/12 10:56:02;;;;;;;20.90;10.65;;;;;;;;;;5093003;28;20527;-74
2022/09/12 10:58:28;;;;;;;22.58;11.40;;;;;;;;;;5123032;27;20043;-72
2022/09/12 11:00:58;;;;;;;21.73;10.25;;;;;;;;;;5093270;28;20069;-71
2022/09/12 11:03:50;;;;;;;34.00;12.15;;;;;;;;;;5093537;28;20051;-74
2022/09/12 11:06:22;;;;;;;22.75;9.98;;;;;;;;;;5073550;28;20068;-73
2022/09/12 11:08:48;;;;;;;25.65;11.10;;;;;;;;;;5109043;28;20047;-73
2022/09/12 11:11:33;;;;;;;19.63;10.32;;;;;;;;;;5093054;28;20062;-75
2022/09/12 11:14:02;;;;;;;27.92;11.88;;;;;;;;;;5076134;28;20039;-72
2022/09/12 11:16:38;;;;;;;19.75;10.43;;;;;;;;;;5093301;28;20131;-68
2022/09/12 11:19:13;;;;;;;23.97;10.57;;;;;;;;;;5091797;28;20043;-71
2022/09/12 11:21:57;;;;;;;21.45;10.32;;;;;;;;;;5116505;27;20945;-83
2022/09/12 11:24:41;;;;;;;20.92;9.13;;;;;;;;;;5084199;28;20047;-76
2022/09/12 11:27:07;;;;;;;18.08;9.30;;;;;;;;;;5091389;28;20455;-74
2022/09/12 11:29:39;;;;;;;20.15;10.43;;;;;;;;;;5089558;28;20096;-75
2022/09/12 11:32:11;;;;;;;16.48;8.55;;;;;;;;;;5079339;28;20055;-72
2022/09/12 11:34:44;;;;;;;18.60;8.73;;;;;;;;;;5109883;28;20103;-73
2022/09/12 11:37:49;;;;;;;17.45;8.32;;;;;;;;;;5091262;28;20055;-71
2022/09/12 11:40:33;;;;;;;15.60;8.82;;;;;;;;;;5048042;28;20053;-75
2022/09/12 11:43:04;;;;;;;14.45;7.35;;;;;;;;;;5046617;28;20052;-75
2022/09/12 11:45:42;;;;;;;11.88;6.85;;;;;;;;;;5066867;28;20051;-73
2022/09/12 11:48:13;;;;;;;17.73;8.55;;;;;;;;;;5092465;28;20040;-75
2022/09/12 12:36:01;;;;;;;11.88;5.85;;;;;;;;;;4985005;28;20050;-74
2022/09/12 12:38:27;;;;;;;11.13;5.65;;;;;;;;;;4981857;28;20070;-74
2022/09/12 12:40:53;;;;;;;9.68;5.57;;;;;;;;;;4984443;28;20085;-73
2022/09/12 12:43:31;;;;;;;11.52;5.20;;;;;;;;;;4987949;28;20046;-79
2022/09/12 12:46:05;;;;;;;9.48;4.82;;;;;;;;;;4990220;28;20674;-80
2022/09/12 12:48:33;;;;;;;11.52;5.00;;;;;;;;;;4972707;28;20471;-82
2022/09/12 12:51:20;;;;;;;9.40;4.75;;;;;;;;;;4970161;28;20053;-79
2022/09/12 12:53:46;;;;;;;10.40;5.78;;;;;;;;;;4971382;28;20046;-79
2022/09/12 12:56:25;;;;;;;9.50;5.40;;;;;;;;;;4969794;28;20062;-83
2022/09/12 12:58:58;;;;;;;8.07;4.70;;;;;;;;;;4979714;28;20038;-80
2022/09/12 13:01:24;;;;;;;9.88;4.78;;;;;;;;;;4980595;28;20046;-80
2022/09/12 13:04:00;;;;;;;8.65;4.75;;;;;;;;;;4982271;28;20100;-79
2022/09/12 13:06:26;;;;;;;;;;;;;;;;;;4979790;28;20066;-79
2022/09/12 13:08:58;;;;;;;10.32;5.78;;;;;;;;;;4980913;28;19926;-78
2022/09/12 13:11:33;;;;;;;9.82;5.40;;;;;;;;;;4988185;28;20062;-78
2022/09/12 13:14:01;;;;;;;9.85;5.75;;;;;;;;;;4972993;28;20376;-79
2022/09/12 13:16:38;;;;;;;10.45;5.05;;;;;;;;;;4971114;28;20549;-76
2022/09/12 13:19:06;;;;;;;11.88;4.97;;;;;;;;;;4973766;28;20042;-78
2022/09/12 13:21:32;;;;;;;9.48;4.28;;;;;;;;;;4970383;28;20085;-79
2022/09/12 13:24:02;;;;;;;7.88;4.50;;;;;;;;;;4978611;28;20053;-78
2022/09/12 13:26:32;;;;;;;9.10;4.78;;;;;;;;;;4977240;28;20089;-79
2022/09/12 13:29:11;;;;;;;6.90;3.97;;;;;;;;;;4972830;28;20050;-77
2022/09/12 13:31:38;;;;;;;8.05;4.20;;;;;;;;;;4974501;28;20150;-76
2022/09/12 13:34:05;;;;;;;7.85;3.70;;;;;;;;;;4993401;28;20530;-77
2022/09/12 13:36:50;;;;;;;7.53;3.97;;;;;;;;;;4984912;28;20050;-76
2022/09/12 13:39:20;;;;;;;7.35;3.88;;;;;;;;;;4993455;28;20042;-75
2022/09/12 13:41:49;;;;;;;7.07;3.58;;;;;;;;;;4992036;28;20046;-75
2022/09/12 13:44:18;;;;;;;8.65;4.20;;;;;;;;;;4991967;28;20442;-76
2022/09/12 13:46:44;;;;;;;7.88;4.30;;;;;;;;;;4987041;28;20046;-76
2022/09/12 13:49:27;;;;;;;6.97;3.95;;;;;;;;;;4993171;28;20108;-76
2022/09/12 13:52:00;;;;;;;7.32;3.95;;;;;;;;;;4990205;28;20440;-76
2022/09/12 13:54:26;;;;;;;7.97;3.35;;;;;;;;;;4979564;28;20103;-77
2022/09/12 13:56:52;;;;;;;7.55;4.47;;;;;;;;;;4992772;28;20054;-75
2022/09/12 13:59:18;;;;;;;6.72;3.60;;;;;;;;;;4986345;28;20051;-74
2022/09/12 14:01:45;;;;;;;8.02;4.40;;;;;;;;;;4983420;28;20061;-75
2022/09/12 14:07:03;;;;;;;8.25;4.45;;;;;;;;;;4990122;28;20050;-76
2022/09/12 14:09:32;;;;;;;9.07;4.20;;;;;;;;;;4991317;28;20459;-75
2022/09/12 14:11:58;;;;;;;8.15;3.92;;;;;;;;;;4985292;28;20055;-76
2022/09/12 14:14:30;;;;;;;5.70;3.35;;;;;;;;;;4987435;28;20053;-76
2022/09/12 14:16:57;;;;;;;8.80;4.03;;;;;;;;;;4990151;28;20045;-76
2022/09/12 14:19:24;;;;;;;8.18;3.72;;;;;;;;;;4991355;28;20120;-80
2022/09/12 14:21:52;;;;;;;6.40;3.75;;;;;;;;;;4975596;28;20085;-76
2022/09/12 14:24:22;;;;;;;7.55;3.67;;;;;;;;;;4986475;28;20050;-76
2022/09/12 14:26:49;;;;;;;6.68;3.20;;;;;;;;;;4991230;28;20054;-76
2022/09/12 14:29:16;;;;;;;5.68;3.22;;;;;;;;;;5006051;28;20065;-76
2022/09/12 14:31:43;;;;;;;4.90;2.83;;;;;;;;;;4991624;28;20081;-76
2022/09/12 14:34:16;;;;;;;7.03;3.08;;;;;;;;;;4992096;28;20061;-76
2022/09/12 14:36:49;;;;;;;5.40;2.85;;;;;;;;;;4989913;28;20157;-75
2022/09/12 14:39:34;;;;;;;6.22;2.97;;;;;;;;;;4990953;28;20115;-76
2022/09/12 14:42:11;;;;;;;4.32;2.75;;;;;;;;;;4974669;28;20047;-75
2022/09/12 14:44:38;;;;;;;4.43;2.80;;;;;;;;;;4985439;28;20061;-76
2022/09/12 14:47:12;;;;;;;4.60;2.67;;;;;;;;;;4971841;28;20042;-76
2022/09/12 14:49:39;;;;;;;5.43;2.35;;;;;;;;;;4970962;28;20070;-77
2022/09/12 14:52:06;;;;;;;4.43;2.60;;;;;;;;;;4981719;28;20051;-77
2022/09/12 14:54:36;;;;;;;4.00;2.50;;;;;;;;;;4975484;28;20105;-75
2022/09/12 14:57:05;;;;;;;4.68;2.63;;;;;;;;;;4970875;28;20051;-76
2022/09/12 14:59:34;;;;;;;5.88;2.50;;;;;;;;;;4975675;28;20475;-76
2022/09/12 15:02:19;;;;;;;5.68;2.78;;;;;;;;;;4972259;28;20057;-75
2022/09/12 15:05:05;;;;;;;4.32;2.35;;;;;;;;;;4972798;28;20322;-71
2022/09/12 15:07:33;;;;;;;4.90;2.50;;;;;;;;;;4971592;28;20193;-70
2022/09/12 15:10:01;;;;;;;5.75;2.60;;;;;;;;;;4989373;28;20491;-75
2022/09/12 15:12:27;;;;;;;3.38;2.40;;;;;;;;;;4990135;28;20380;-78
2022/09/12 15:14:57;;;;;;;6.32;2.55;;;;;;;;;;4979968;28;20058;-75
2022/09/12 15:17:23;;;;;;;4.82;2.30;;;;;;;;;;4991318;28;20049;-71
2022/09/12 15:19:49;;;;;;;4.57;2.15;;;;;;;;;;4990620;28;20068;-74
2022/09/12 15:22:15;;;;;;;5.13;2.13;;;;;;;;;;4989485;28;20088;-73
2022/09/12 15:24:41;;;;;;;3.22;2.10;;;;;;;;;;4991073;28;20057;-72
2022/09/12 15:27:11;;;;;;;4.60;2.30;;;;;;;;;;4991375;28;20043;-78
2022/09/12 15:29:37;;;;;;;4.03;2.17;;;;;;;;;;4989159;28;20089;-73
2022/09/12 15:32:05;;;;;;;4.20;2.20;;;;;;;;;;4989175;28;20503;-74
2022/09/12 15:34:31;;;;;;;10.90;2.40;;;;;;;;;;4982200;28;20062;-76
2022/09/12 15:36:57;;;;;;;3.92;2.28;;;;;;;;;;4978649;28;20078;-73
2022/09/12 15:39:26;;;;;;;3.60;2.38;;;;;;;;;;4986815;28;20046;-75
2022/09/12 15:41:52;;;;;;;3.90;2.08;;;;;;;;;;4988440;28;20062;-73
2022/09/12 15:44:19;;;;;;;6.78;2.42;;;;;;;;;;4988692;28;20054;-73